createdAt,value
2018-09-13T00:00:39.886Z,98618.23
2018-09-13T00:02:52.121Z,98611.62
2018-09-13T00:05:04.432Z,98603.34
2018-09-13T00:07:16.659Z,98602.44
2018-09-13T00:09:28.824Z,98600.06
2018-09-13T00:11:41.058Z,98603.78
2018-09-13T00:13:53.259Z,98605.81
2018-09-13T00:16:05.515Z,98603.90
2018-09-13T00:18:17.725Z,98609.76
2018-09-13T00:20:29.940Z,98613.14
2018-09-13T00:22:42.148Z,98619.30
2018-09-13T00:24:54.315Z,98626.26
2018-09-13T00:27:06.498Z,98622.66
2018-09-13T00:29:18.671Z,98622.51
2018-09-13T00:31:30.896Z,98619.68
2018-09-13T00:33:43.212Z,98619.11
2018-09-13T00:35:55.378Z,98622.51
2018-09-13T00:38:07.575Z,98623.00
2018-09-13T00:40:19.753Z,98619.53
2018-09-13T00:42:31.962Z,98620.17
2018-09-13T00:44:44.167Z,98615.84
2018-09-13T00:46:56.386Z,98618.88
2018-09-13T00:49:08.551Z,98615.34
2018-09-13T00:51:20.770Z,98621.63
2018-09-13T00:53:33.003Z,98623.38
2018-09-13T00:55:45.211Z,98620.17
2018-09-13T00:57:57.403Z,98611.42
2018-09-13T01:00:09.584Z,98613.41
2018-09-13T01:02:21.763Z,98615.03
2018-09-13T01:04:33.966Z,98613.97
2018-09-13T01:06:46.189Z,98609.45
2018-09-13T01:08:58.445Z,98606.02
2018-09-13T01:11:10.653Z,98604.27
2018-09-13T01:13:22.862Z,98600.73
2018-09-13T01:15:35.068Z,98602.67
2018-09-13T01:17:47.298Z,98605.16
2018-09-13T01:19:59.482Z,98604.72
2018-09-13T01:22:11.644Z,98602.05
2018-09-13T01:24:23.871Z,98598.73
2018-09-13T01:26:36.091Z,98598.16
2018-09-13T01:28:48.310Z,98598.02
2018-09-13T01:31:00.523Z,98605.16
2018-09-13T01:33:12.725Z,98601.30
2018-09-13T01:35:24.907Z,98595.78
2018-09-13T01:37:37.138Z,98594.92
2018-09-13T01:39:49.569Z,98602.81
2018-09-13T01:42:01.743Z,98596.13
2018-09-13T01:44:13.929Z,98594.08
2018-09-13T01:46:26.111Z,98586.05
2018-09-13T01:48:38.301Z,98587.45
2018-09-13T01:50:50.512Z,98592.95
2018-09-13T01:53:02.694Z,98588.02
2018-09-13T01:55:14.919Z,98598.87
2018-09-13T01:57:27.112Z,98610.70
2018-09-13T01:59:39.380Z,98613.23
2018-09-13T02:01:51.677Z,98609.55
2018-09-13T02:04:03.973Z,98607.30
2018-09-13T02:06:16.179Z,98614.69
2018-09-13T02:08:28.412Z,98621.12
2018-09-13T02:10:40.643Z,98622.32
2018-09-13T02:12:52.824Z,98626.52
2018-09-13T02:15:05.091Z,98634.60
2018-09-13T02:17:17.264Z,98627.44
2018-09-13T02:19:29.502Z,98622.41
2018-09-13T02:21:41.691Z,98629.56
2018-09-13T02:23:53.906Z,98630.64
2018-09-13T02:26:06.143Z,98618.95
2018-09-13T02:28:18.352Z,98616.58
2018-09-13T02:30:30.596Z,98614.64
2018-09-13T02:32:42.771Z,98612.64
2018-09-13T02:34:55.078Z,98604.09
2018-09-13T02:37:07.269Z,98605.17
2018-09-13T02:39:19.483Z,98615.17
2018-09-13T02:41:31.701Z,98610.44
2018-09-13T02:43:43.895Z,98605.08
2018-09-13T02:45:56.119Z,98603.87
2018-09-13T02:48:08.351Z,98591.07
2018-09-13T02:50:20.558Z,98589.50
2018-09-13T02:52:32.755Z,98591.05
2018-09-13T02:54:44.923Z,98586.13
2018-09-13T02:56:57.180Z,98585.30
2018-09-13T02:59:09.403Z,98572.39
2018-09-13T03:01:21.567Z,98576.67
2018-09-13T03:03:33.771Z,98575.70
2018-09-13T03:05:46.047Z,98581.19
2018-09-13T03:07:58.250Z,98580.70
2018-09-13T03:10:10.424Z,98574.70
2018-09-13T03:12:22.680Z,98570.02
2018-09-13T03:14:34.937Z,98570.50
2018-09-13T03:16:47.131Z,98578.73
2018-09-13T03:18:59.355Z,98589.25
2018-09-13T03:21:11.531Z,98591.87
2018-09-13T03:23:23.792Z,98592.91
2018-09-13T03:25:35.967Z,98595.80
2018-09-13T03:27:48.222Z,98598.42
2018-09-13T03:30:00.502Z,98601.30
2018-09-13T03:32:12.702Z,98598.79
2018-09-13T03:34:24.925Z,98604.42
2018-09-13T03:36:37.101Z,98600.33
2018-09-13T03:38:49.359Z,98599.73
2018-09-13T03:41:01.543Z,98603.53
2018-09-13T03:43:13.790Z,98606.63
2018-09-13T03:45:25.978Z,98600.73
2018-09-13T03:47:38.229Z,98599.68
2018-09-13T03:49:50.462Z,98602.56
2018-09-13T03:52:02.693Z,98606.51
2018-09-13T03:54:14.940Z,98604.59
2018-09-13T03:56:27.484Z,98608.20
2018-09-13T03:58:39.720Z,98612.14
2018-09-13T04:00:52.166Z,98613.56
2018-09-13T04:03:04.370Z,98610.94
2018-09-13T04:05:16.662Z,98607.63
2018-09-13T04:07:28.874Z,98612.83
2018-09-13T04:09:41.071Z,98618.31
2018-09-13T04:11:53.282Z,98608.63
2018-09-13T04:14:05.643Z,98606.39
2018-09-13T04:16:17.875Z,98599.02
2018-09-13T04:18:30.098Z,98594.44
2018-09-13T04:20:42.320Z,98591.86
2018-09-13T04:22:54.531Z,98586.84
2018-09-13T04:25:06.851Z,98585.23
2018-09-13T04:27:19.027Z,98584.50
2018-09-13T04:29:31.272Z,98577.50
2018-09-13T04:31:43.541Z,98572.58
2018-09-13T04:33:55.737Z,98571.27
2018-09-13T04:36:08.020Z,98564.70
2018-09-13T04:38:20.180Z,98557.78
2018-09-13T04:40:32.402Z,98558.50
2018-09-13T04:42:44.654Z,98556.64
2018-09-13T04:44:56.834Z,98555.47
2018-09-13T04:47:09.043Z,98558.78
2018-09-13T04:49:21.263Z,98565.84
2018-09-13T04:51:33.498Z,98567.16
2018-09-13T04:53:45.716Z,98579.36
2018-09-13T04:55:57.972Z,98580.88
2018-09-13T04:58:10.190Z,98571.56
2018-09-13T05:00:22.431Z,98564.24
2018-09-13T05:02:34.631Z,98561.70
2018-09-13T05:04:46.870Z,98560.50
2018-09-13T05:06:59.067Z,98562.87
2018-09-13T05:09:12.723Z,98560.98
2018-09-13T05:11:25.181Z,98572.41
2018-09-13T05:13:37.391Z,98567.30
2018-09-13T05:15:49.601Z,98577.02
2018-09-13T05:18:01.893Z,98569.84
2018-09-13T05:20:14.083Z,98562.04
2018-09-13T05:22:26.274Z,98562.27
2018-09-13T05:24:38.510Z,98567.27
2018-09-13T05:26:50.674Z,98570.95
2018-09-13T05:29:02.912Z,98578.21
2018-09-13T05:31:15.082Z,98580.44
2018-09-13T05:33:27.300Z,98592.41
2018-09-13T05:35:39.495Z,98590.61
2018-09-13T05:37:51.706Z,98585.09
2018-09-13T05:40:04.027Z,98579.75
2018-09-13T05:42:16.231Z,98580.98
2018-09-13T05:44:28.467Z,98576.21
2018-09-13T05:46:40.671Z,98585.76
2018-09-13T05:48:52.867Z,98576.81
2018-09-13T05:51:05.151Z,98574.78
2018-09-13T05:53:17.327Z,98568.95
2018-09-13T05:55:29.579Z,98563.24
2018-09-13T05:57:41.772Z,98562.84
2018-09-13T05:59:53.978Z,98567.47
2018-09-13T06:02:06.243Z,98569.34
2018-09-13T06:04:18.532Z,98561.42
2018-09-13T06:06:30.761Z,98559.73
2018-09-13T06:08:42.977Z,98562.73
2018-09-13T06:10:57.295Z,98562.45
2018-09-13T06:13:09.554Z,98566.13
2018-09-13T06:15:21.859Z,98572.02
2018-09-13T06:17:34.059Z,98573.94
2018-09-13T06:19:46.271Z,98578.94
2018-09-13T06:21:58.495Z,98583.34
2018-09-13T06:24:10.713Z,98588.05
2018-09-13T06:26:22.962Z,98580.98
2018-09-13T06:28:35.183Z,98583.42
2018-09-13T06:30:47.426Z,98590.74
2018-09-13T06:32:59.628Z,98594.69
2018-09-13T06:35:11.863Z,98591.42
2018-09-13T06:37:24.139Z,98592.63
2018-09-13T06:39:36.322Z,98607.44
2018-09-13T06:41:48.554Z,98603.23
2018-09-13T06:44:00.789Z,98601.57
2018-09-13T06:46:13.000Z,98606.61
2018-09-13T06:48:25.307Z,98602.58
2018-09-13T06:50:37.490Z,98602.35
2018-09-13T06:52:49.692Z,98596.49
2018-09-13T06:55:01.927Z,98598.41
2018-09-13T06:57:14.167Z,98592.55
2018-09-13T06:59:26.359Z,98586.31
2018-09-13T07:01:38.576Z,98595.74
2018-09-13T07:03:50.859Z,98592.36
2018-09-13T07:06:03.086Z,98596.39
2018-09-13T07:08:15.307Z,98603.16
2018-09-13T07:10:27.514Z,98609.88
2018-09-13T07:12:39.731Z,98608.57
2018-09-13T07:14:51.950Z,98608.73
2018-09-13T07:17:04.207Z,98606.88
2018-09-13T07:19:16.437Z,98601.70
2018-09-13T07:21:28.597Z,98606.36
2018-09-13T07:23:40.862Z,98607.19
2018-09-13T07:25:52.982Z,98609.06
2018-09-13T07:28:05.211Z,98612.59
2018-09-13T07:30:17.448Z,98614.48
2018-09-13T07:32:29.718Z,98608.82
2018-09-13T07:34:41.951Z,98612.49
2018-09-13T07:36:54.190Z,98613.73
2018-09-13T07:39:09.323Z,98610.90
2018-09-13T07:41:21.570Z,98613.52
2018-09-13T07:43:33.803Z,98611.92
2018-09-13T07:45:46.026Z,98606.55
2018-09-13T07:47:58.219Z,98602.55
2018-09-13T07:50:10.450Z,98604.23
2018-09-13T07:52:22.676Z,98601.52
2018-09-13T07:54:34.959Z,98604.91
2018-09-13T07:56:47.175Z,98604.41
2018-09-13T07:58:59.510Z,98605.16
2018-09-13T08:01:11.734Z,98604.56
2018-09-13T08:03:23.929Z,98611.95
2018-09-13T08:05:36.227Z,98606.86
2018-09-13T08:07:48.417Z,98613.77
2018-09-13T08:10:00.651Z,98613.82
2018-09-13T08:12:12.926Z,98612.80
2018-09-13T08:14:25.105Z,98616.25
2018-09-13T08:16:37.335Z,98619.17
2018-09-13T08:18:49.527Z,98615.84
2018-09-13T08:21:01.731Z,98621.73
2018-09-13T08:23:13.941Z,98613.77
2018-09-13T08:25:26.131Z,98605.11
2018-09-13T08:27:38.435Z,98606.00
2018-09-13T08:29:50.745Z,98610.98
2018-09-13T08:32:02.931Z,98610.69
2018-09-13T08:34:15.139Z,98617.20
2018-09-13T08:36:27.524Z,98615.23
2018-09-13T08:38:39.767Z,98617.84
2018-09-13T08:40:52.141Z,98618.44
2018-09-13T08:43:04.413Z,98621.72
2018-09-13T08:45:16.652Z,98621.61
2018-09-13T08:47:29.011Z,98629.63
2018-09-13T08:49:41.146Z,98622.82
2018-09-13T08:51:53.404Z,98621.17
2018-09-13T08:54:05.564Z,98620.25
2018-09-13T08:56:17.864Z,98616.30
2018-09-13T08:58:30.106Z,98617.94
2018-09-13T09:00:42.330Z,98628.87
2018-09-13T09:02:54.526Z,98633.33
2018-09-13T09:05:07.147Z,98620.66
2018-09-13T09:07:19.428Z,98617.31
2018-09-13T09:09:31.630Z,98620.53
2018-09-13T09:11:43.925Z,98619.27
2018-09-13T09:13:56.058Z,98611.31
2018-09-13T09:16:08.337Z,98614.80
2018-09-13T09:18:20.627Z,98620.23
2018-09-13T09:20:32.855Z,98618.34
2018-09-13T09:22:45.083Z,98612.81
2018-09-13T09:24:57.275Z,98616.67
2018-09-13T09:27:09.582Z,98623.32
2018-09-13T09:29:21.861Z,98623.55
2018-09-13T09:31:34.019Z,98625.12
2018-09-13T09:33:46.299Z,98624.38
2018-09-13T09:35:58.528Z,98628.23
2018-09-13T09:38:10.753Z,98623.26
2018-09-13T09:40:22.973Z,98618.46
2018-09-13T09:42:35.187Z,98623.26
2018-09-13T09:44:47.396Z,98625.25
2018-09-13T09:46:59.608Z,98623.60
2018-09-13T09:49:11.841Z,98625.41
2018-09-13T09:51:24.075Z,98630.56
2018-09-13T09:53:36.278Z,98628.53
2018-09-13T09:55:48.446Z,98629.53
2018-09-13T09:58:00.758Z,98629.53
2018-09-13T10:00:12.944Z,98627.91
2018-09-13T10:02:25.203Z,98628.75
2018-09-13T10:04:37.535Z,98626.91
2018-09-13T10:06:49.714Z,98627.73
2018-09-13T10:09:02.041Z,98625.73
2018-09-13T10:11:14.258Z,98629.07
2018-09-13T10:13:26.499Z,98627.06
2018-09-13T10:15:44.305Z,98626.24
2018-09-13T10:18:02.262Z,98630.87
2018-09-13T10:20:20.160Z,98627.22
2018-09-13T10:22:38.091Z,98622.11
2018-09-13T10:24:55.940Z,98635.20
2018-09-13T10:27:13.907Z,98638.16
2018-09-13T10:29:31.767Z,98639.81
2018-09-13T10:31:49.726Z,98636.16
2018-09-13T10:34:07.611Z,98636.84
2018-09-13T10:36:25.645Z,98643.82
2018-09-13T10:38:43.494Z,98640.34
2018-09-13T10:41:01.403Z,98637.19
2018-09-13T10:43:19.394Z,98632.71
2018-09-13T10:45:37.431Z,98630.38
2018-09-13T10:47:56.929Z,98633.20
2018-09-13T10:50:13.308Z,98630.54
2018-09-13T10:52:32.566Z,98623.60
2018-09-13T10:54:44.793Z,98627.39
2018-09-13T10:57:01.575Z,98631.88
2018-09-13T10:59:13.922Z,98634.02
2018-09-13T11:01:26.114Z,98633.69
2018-09-13T11:03:38.330Z,98632.20
2018-09-13T11:05:50.598Z,98627.22
2018-09-13T11:08:02.928Z,98628.20
2018-09-13T11:10:15.163Z,98630.84
2018-09-13T11:12:32.205Z,98630.20
2018-09-13T11:14:47.830Z,98628.05
2018-09-13T11:17:00.106Z,98629.58
2018-09-13T11:19:12.678Z,98625.60
2018-09-13T11:21:25.002Z,98624.92
2018-09-13T11:23:37.209Z,98623.92
2018-09-13T11:25:49.474Z,98625.11
2018-09-13T11:28:01.781Z,98625.73
2018-09-13T11:30:13.970Z,98624.08
2018-09-13T11:32:26.228Z,98621.10
2018-09-13T11:34:38.490Z,98620.42
2018-09-13T11:36:50.709Z,98623.09
2018-09-13T11:39:05.123Z,98620.25
2018-09-13T11:41:17.445Z,98609.30
2018-09-13T11:43:29.667Z,98608.99
2018-09-13T11:45:43.188Z,98608.48
2018-09-13T11:47:55.523Z,98608.00
2018-09-13T11:50:07.915Z,98607.30
2018-09-13T11:52:20.160Z,98611.64
2018-09-13T11:54:32.396Z,98613.63
2018-09-13T11:56:44.650Z,98615.48
2018-09-13T11:58:56.967Z,98612.15
2018-09-13T12:01:09.255Z,98617.28
2018-09-13T12:03:21.527Z,98616.63
2018-09-13T12:05:33.842Z,98612.83
2018-09-13T12:07:46.072Z,98609.67
2018-09-13T12:09:58.293Z,98610.31
2018-09-13T12:12:10.473Z,98615.14
2018-09-13T12:14:22.726Z,98609.66
2018-09-13T12:16:34.995Z,98608.16
2018-09-13T12:18:47.331Z,98605.28
2018-09-13T12:20:59.551Z,98609.04
2018-09-13T12:23:11.748Z,98595.91
2018-09-13T12:25:23.989Z,98596.57
2018-09-13T12:27:36.313Z,98595.24
2018-09-13T12:29:48.506Z,98592.59
2018-09-13T12:32:00.842Z,98591.29
2018-09-13T12:34:13.035Z,98591.30
2018-09-13T12:36:25.274Z,98588.35
2018-09-13T12:38:37.484Z,98593.46
2018-09-13T12:40:49.715Z,98587.64
2018-09-13T12:43:01.920Z,98588.97
2018-09-13T12:45:14.151Z,98586.31
2018-09-13T12:47:26.418Z,98579.31
2018-09-13T12:49:38.653Z,98573.83
2018-09-13T12:51:50.954Z,98576.30
2018-09-13T12:54:03.210Z,98571.72
2018-09-13T12:56:15.508Z,98563.42
2018-09-13T12:58:27.749Z,98558.66
2018-09-13T13:00:40.228Z,98555.47
2018-09-13T13:02:52.478Z,98547.13
2018-09-13T13:05:06.725Z,98546.07
2018-09-13T13:07:18.948Z,98548.55
2018-09-13T13:09:31.299Z,98543.38
2018-09-13T13:11:43.576Z,98536.86
2018-09-13T13:13:55.834Z,98533.06
2018-09-13T13:16:08.192Z,98531.73
2018-09-13T13:18:20.517Z,98535.19
2018-09-13T13:20:32.771Z,98528.51
2018-09-13T13:22:45.015Z,98526.20
2018-09-13T13:24:57.229Z,98522.30
2018-09-13T13:27:09.552Z,98519.20
2018-09-13T13:29:21.722Z,98524.55
2018-09-13T13:31:33.937Z,98520.13
2018-09-13T13:33:46.169Z,98510.84
2018-09-13T13:35:58.416Z,98509.17
2018-09-13T13:38:10.718Z,98504.87
2018-09-13T13:40:22.971Z,98506.67
2018-09-13T13:42:35.207Z,98504.17
2018-09-13T13:44:47.451Z,98505.31
2018-09-13T13:46:59.679Z,98504.43
2018-09-13T13:49:11.966Z,98504.36
2018-09-13T13:53:48.666Z,98494.91
2018-09-13T13:56:00.913Z,98500.23
2018-09-13T13:58:13.161Z,98496.55
2018-09-13T14:00:25.404Z,98496.95
2018-09-13T14:02:37.706Z,98498.63
2018-09-13T14:04:50.060Z,98500.66
2018-09-13T14:07:02.334Z,98504.64
2018-09-13T14:09:14.558Z,98496.79
2018-09-13T14:11:26.876Z,98497.77
2018-09-13T14:13:39.646Z,98494.64
2018-09-13T14:15:51.863Z,98496.70
2018-09-13T14:18:04.144Z,98498.06
2018-09-13T14:20:16.442Z,98495.25
2018-09-13T14:22:28.686Z,98497.75
2018-09-13T14:24:40.943Z,98493.98
2018-09-13T14:26:53.151Z,98498.55
2018-09-13T14:29:05.431Z,98497.88
2018-09-13T14:31:17.695Z,98500.19
2018-09-13T14:33:29.959Z,98498.03
2018-09-13T14:35:42.411Z,98500.25
2018-09-13T14:37:54.642Z,98494.98
2018-09-13T14:40:06.919Z,98494.34
2018-09-13T14:42:19.214Z,98501.33
2018-09-13T14:44:31.421Z,98502.55
2018-09-13T14:46:43.745Z,98508.04
2018-09-13T14:48:55.963Z,98508.38
2018-09-13T14:51:08.286Z,98505.06
2018-09-13T14:53:20.521Z,98514.17
2018-09-13T14:55:32.703Z,98519.46
2018-09-13T14:57:44.922Z,98515.36
2018-09-13T14:59:57.180Z,98510.11
2018-09-13T15:02:09.401Z,98518.73
2018-09-13T15:04:21.703Z,98519.42
2018-09-13T15:06:33.982Z,98526.22
2018-09-13T15:08:46.366Z,98533.01
2018-09-13T15:10:58.583Z,98534.36
2018-09-13T15:13:10.922Z,98537.37
2018-09-13T15:15:23.185Z,98539.38
2018-09-13T15:17:35.458Z,98539.39
2018-09-13T15:19:47.670Z,98549.48
2018-09-13T15:21:59.884Z,98553.44
2018-09-13T15:24:12.144Z,98567.48
2018-09-13T15:26:24.332Z,98561.86
2018-09-13T15:28:36.572Z,98566.97
2018-09-13T15:30:48.776Z,98571.05
2018-09-13T15:33:01.024Z,98575.47
2018-09-13T15:35:13.258Z,98582.16
2018-09-13T15:37:25.499Z,98576.45
2018-09-13T15:39:37.748Z,98584.23
2018-09-13T15:41:49.999Z,98589.13
2018-09-13T15:44:02.319Z,98592.87
2018-09-13T15:46:14.541Z,98595.11
2018-09-13T15:48:26.771Z,98592.39
2018-09-13T15:50:39.042Z,98590.63
2018-09-13T15:52:51.340Z,98592.23
2018-09-13T15:55:03.562Z,98595.94
2018-09-13T15:57:15.849Z,98600.34
2018-09-13T15:59:28.250Z,98611.19
2018-09-13T16:01:40.498Z,98612.80
2018-09-13T16:03:52.759Z,98617.82
2018-09-13T16:06:05.101Z,98615.60
2018-09-13T16:08:17.320Z,98626.89
2018-09-13T16:10:29.585Z,98629.61
2018-09-13T16:12:41.862Z,98631.48
2018-09-13T16:14:54.090Z,98628.22
2018-09-13T16:17:06.310Z,98629.09
2018-09-13T16:19:18.578Z,98642.03
2018-09-13T16:21:30.819Z,98645.56
2018-09-13T16:23:43.068Z,98655.27
2018-09-13T16:25:55.343Z,98664.73
2018-09-13T16:28:07.643Z,98666.63
2018-09-13T16:30:19.858Z,98671.02
2018-09-13T16:32:32.070Z,98668.44
2018-09-13T16:34:44.369Z,98668.17
2018-09-13T16:37:14.499Z,98671.70
2018-09-13T16:39:32.549Z,98670.42
2018-09-13T16:41:50.419Z,98660.63
2018-09-13T16:44:04.806Z,98657.43
2018-09-13T16:46:22.675Z,98653.75
2018-09-13T16:48:40.485Z,98651.11
2018-09-13T16:50:52.726Z,98652.30
2018-09-13T16:53:05.036Z,98648.95
2018-09-13T16:55:17.307Z,98652.56
2018-09-13T16:57:29.516Z,98650.69
2018-09-13T16:59:41.785Z,98636.89
2018-09-13T17:01:54.053Z,98633.22
2018-09-13T17:04:06.351Z,98637.81
2018-09-13T17:06:18.568Z,98632.33
2018-09-13T17:08:30.798Z,98627.55
2018-09-13T17:10:43.052Z,98637.52
2018-09-13T17:12:55.297Z,98639.59
2018-09-13T17:15:07.623Z,98644.15
2018-09-13T17:17:19.863Z,98648.58
2018-09-13T17:19:32.064Z,98645.01
2018-09-13T17:21:44.288Z,98644.15
2018-09-13T17:23:56.529Z,98644.70
2018-09-13T17:26:08.814Z,98646.52
2018-09-13T17:28:21.127Z,98639.63
2018-09-13T17:30:33.374Z,98646.33
2018-09-13T17:32:45.714Z,98645.99
2018-09-13T17:34:57.979Z,98644.33
2018-09-13T17:37:10.270Z,98639.33
2018-09-13T17:39:22.601Z,98640.16
2018-09-13T17:41:34.952Z,98643.28
2018-09-13T17:43:47.230Z,98637.30
2018-09-13T17:45:59.500Z,98637.48
2018-09-13T17:48:11.770Z,98636.92
2018-09-13T17:50:24.059Z,98637.59
2018-09-13T17:52:36.400Z,98639.25
2018-09-13T17:54:48.655Z,98644.17
2018-09-13T17:57:01.022Z,98649.17
2018-09-13T17:59:13.267Z,98645.55
2018-09-13T18:01:25.483Z,98643.75
2018-09-13T18:03:37.903Z,98641.72
2018-09-13T18:05:50.195Z,98637.17
2018-09-13T18:08:02.496Z,98643.75
2018-09-13T18:10:14.779Z,98636.52
2018-09-13T18:12:27.066Z,98641.47
2018-09-13T18:14:39.303Z,98645.67
2018-09-13T18:16:51.526Z,98647.25
2018-09-13T18:19:04.006Z,98651.82
2018-09-13T18:21:16.286Z,98649.30
2018-09-13T18:23:28.617Z,98661.97
2018-09-13T18:25:41.334Z,98655.54
2018-09-13T18:27:53.643Z,98653.59
2018-09-13T18:30:06.028Z,98660.53
2018-09-13T18:32:18.283Z,98659.22
2018-09-13T18:34:30.535Z,98659.48
2018-09-13T18:36:42.785Z,98655.19
2018-09-13T18:38:55.121Z,98655.88
2018-09-13T18:41:07.392Z,98651.19
2018-09-13T18:43:19.743Z,98661.51
2018-09-13T18:45:32.384Z,98660.08
2018-09-13T18:47:44.655Z,98659.64
2018-09-13T18:49:56.938Z,98669.10
2018-09-13T18:52:09.250Z,98673.78
2018-09-13T18:54:21.629Z,98674.98
2018-09-13T18:56:33.803Z,98676.02
2018-09-13T18:58:46.076Z,98672.70
2018-09-13T19:00:58.339Z,98677.88
2018-09-13T19:03:10.644Z,98679.09
2018-09-13T19:05:22.993Z,98677.78
2018-09-13T19:07:35.253Z,98684.95
2018-09-13T19:09:47.527Z,98676.63
2018-09-13T19:11:59.903Z,98677.47
2018-09-13T19:14:12.159Z,98674.16
2018-09-13T19:16:24.466Z,98670.80
2018-09-13T19:18:36.724Z,98670.66
2018-09-13T19:20:49.055Z,98675.56
2018-09-13T19:23:01.315Z,98677.31
2018-09-13T19:25:13.571Z,98677.41
2018-09-13T19:27:25.828Z,98677.39
2018-09-13T19:29:38.086Z,98674.61
2018-09-13T19:31:50.446Z,98682.16
2018-09-13T19:34:02.776Z,98685.38
2018-09-13T19:36:15.046Z,98686.25
2018-09-13T19:38:27.383Z,98693.02
2018-09-13T19:40:39.659Z,98695.05
2018-09-13T19:42:52.022Z,98693.85
2018-09-13T19:45:04.568Z,98699.25
2018-09-13T19:47:16.854Z,98705.10
2018-09-13T19:49:29.073Z,98708.02
2018-09-13T19:51:41.371Z,98709.44
2018-09-13T19:53:53.667Z,98712.21
2018-09-13T19:56:06.031Z,98710.17
2018-09-13T19:58:18.290Z,98704.81
2018-09-13T20:00:30.579Z,98706.00
2018-09-13T20:02:42.930Z,98708.77
2018-09-13T20:04:55.274Z,98704.48
2018-09-13T20:07:07.547Z,98708.05
2018-09-13T20:09:19.779Z,98705.95
2018-09-13T20:11:32.076Z,98704.14
2018-09-13T20:13:44.349Z,98702.36
2018-09-13T20:15:56.634Z,98696.31
2018-09-13T20:18:09.016Z,98700.02
2018-09-13T20:20:21.194Z,98691.90
2018-09-13T20:22:33.473Z,98697.73
2018-09-13T20:24:45.769Z,98702.50
2018-09-13T20:26:57.982Z,98699.38
2018-09-13T20:29:10.283Z,98708.44
2018-09-13T20:31:22.521Z,98712.95
2018-09-13T20:33:34.824Z,98716.55
2018-09-13T20:35:47.031Z,98714.52
2018-09-13T20:38:00.051Z,98720.16
2018-09-13T20:40:12.336Z,98720.16
2018-09-13T20:42:24.600Z,98722.41
2018-09-13T20:44:36.858Z,98722.55
2018-09-13T20:46:49.142Z,98720.02
2018-09-13T20:49:01.431Z,98714.08
2018-09-13T20:51:13.729Z,98716.61
2018-09-13T20:53:25.933Z,98719.92
2018-09-13T20:55:38.229Z,98718.60
2018-09-13T20:57:50.470Z,98719.29
2018-09-13T21:00:02.797Z,98724.34
2018-09-13T21:02:15.083Z,98720.75
2018-09-13T21:04:27.358Z,98717.39
2018-09-13T21:06:39.606Z,98719.68
2018-09-13T21:08:51.895Z,98720.76
2018-09-13T21:11:04.130Z,98726.53
2018-09-13T21:13:16.409Z,98727.95
2018-09-13T21:15:28.671Z,98728.68
2018-09-13T21:17:40.891Z,98726.74
2018-09-13T21:19:53.240Z,98726.29
2018-09-13T21:22:05.468Z,98725.33
2018-09-13T21:24:17.789Z,98731.55
2018-09-13T21:26:30.031Z,98728.92
2018-09-13T21:28:42.291Z,98724.74
2018-09-13T21:30:54.575Z,98726.30
2018-09-13T21:33:06.804Z,98718.06
2018-09-13T21:35:19.072Z,98724.84
2018-09-13T21:37:31.318Z,98727.12
2018-09-13T21:39:43.556Z,98724.50
2018-09-13T21:41:55.918Z,98726.20
2018-09-13T21:44:08.212Z,98723.71
2018-09-13T21:46:20.509Z,98724.79
2018-09-13T21:48:32.735Z,98721.09
2018-09-13T21:50:45.036Z,98727.03
2018-09-13T21:52:57.294Z,98725.27
2018-09-13T21:55:09.611Z,98722.05
2018-09-13T21:57:21.888Z,98722.89
2018-09-13T21:59:34.136Z,98720.40
2018-09-13T22:01:46.363Z,98717.63
2018-09-13T22:03:58.649Z,98723.61
2018-09-13T22:06:10.879Z,98723.23
2018-09-13T22:08:23.115Z,98728.14
2018-09-13T22:10:35.348Z,98728.24
2018-09-13T22:12:47.632Z,98731.59
2018-09-13T22:14:59.862Z,98733.50
2018-09-13T22:17:12.175Z,98733.05
2018-09-13T22:19:24.386Z,98734.61
2018-09-13T22:21:36.694Z,98737.95
2018-09-13T22:23:48.867Z,98735.92
2018-09-13T22:26:01.141Z,98738.20
2018-09-13T22:28:13.386Z,98735.20
2018-09-13T22:30:25.616Z,98737.58
2018-09-13T22:32:37.845Z,98735.92
2018-09-13T22:34:50.079Z,98731.84
2018-09-13T22:37:02.351Z,98734.95
2018-09-13T22:39:14.600Z,98734.02
2018-09-13T22:41:26.798Z,98739.27
2018-09-13T22:43:44.792Z,98734.84
2018-09-13T22:45:57.016Z,98732.36
2018-09-13T22:48:09.294Z,98735.58
2018-09-13T22:50:21.539Z,98736.99
2018-09-13T22:52:33.836Z,98740.06
2018-09-13T22:54:49.245Z,98723.23
2018-09-13T22:57:01.524Z,98726.09
2018-09-13T22:59:13.730Z,98723.71
2018-09-13T23:01:25.945Z,98722.40
2018-09-13T23:03:38.166Z,98730.28
2018-09-13T23:05:50.438Z,98725.52
2018-09-13T23:08:02.705Z,98725.66
2018-09-13T23:10:15.451Z,98727.17
2018-09-13T23:12:27.655Z,98734.36
2018-09-13T23:14:39.904Z,98735.58
2018-09-13T23:16:52.146Z,98738.69
2018-09-13T23:19:04.421Z,98738.82
2018-09-13T23:21:16.649Z,98737.38
2018-09-13T23:23:28.858Z,98735.92
2018-09-13T23:25:41.098Z,98741.90
2018-09-13T23:27:53.350Z,98737.96
2018-09-13T23:30:06.134Z,98738.79
2018-09-13T23:32:18.355Z,98739.65
2018-09-13T23:34:30.576Z,98744.07
2018-09-13T23:36:42.816Z,98744.07
2018-09-13T23:38:55.070Z,98742.17
2018-09-13T23:41:07.321Z,98741.20
2018-09-13T23:43:19.503Z,98742.24
2018-09-13T23:45:31.791Z,98744.87
2018-09-13T23:47:44.075Z,98751.43
2018-09-13T23:49:56.276Z,98745.83
2018-09-13T23:52:08.557Z,98743.55
2018-09-13T23:54:20.761Z,98737.75
2018-09-13T23:56:33.023Z,98741.69
2018-09-13T23:58:45.246Z,98740.92
